sensor_id;sensor_type;location;lat;lon;timestamp;pressure;altitude;pressure_sealevel;temperature;humidity
11648;BME280;5880;52.342;9.662;2022-11-12T00:00:44;102555.47;;;12.55;46.01
11648;BME280;5880;52.342;9.662;2022-11-12T00:03:10;102553.75;;;12.54;45.76
11648;BME280;5880;52.342;9.662;2022-11-12T00:05:36;102555.66;;;12.54;46.00
11648;BME280;5880;52.342;9.662;2022-11-12T00:08:03;102556.72;;;12.53;45.94
11648;BME280;5880;52.342;9.662;2022-11-12T00:10:29;102547.38;;;12.47;46.28
11648;BME280;5880;52.342;9.662;2022-11-12T00:12:56;102556.06;;;12.51;46.20
11648;BME280;5880;52.342;9.662;2022-11-12T00:15:22;102562.41;;;12.51;46.24
11648;BME280;5880;52.342;9.662;2022-11-12T00:17:48;102550.59;;;12.51;45.98
11648;BME280;5880;52.342;9.662;2022-11-12T00:20:14;102551.63;;;12.50;45.99
11648;BME280;5880;52.342;9.662;2022-11-12T00:22:41;102559.00;;;12.49;46.07
11648;BME280;5880;52.342;9.662;2022-11-12T00:25:07;102555.41;;;12.49;46.08
11648;BME280;5880;52.342;9.662;2022-11-12T00:27:34;102557.31;;;12.48;46.07
11648;BME280;5880;52.342;9.662;2022-11-12T00:30:00;102553.09;;;12.45;46.00
11648;BME280;5880;52.342;9.662;2022-11-12T00:32:26;102555.59;;;12.47;46.01
11648;BME280;5880;52.342;9.662;2022-11-12T00:34:52;102557.69;;;12.45;46.20
11648;BME280;5880;52.342;9.662;2022-11-12T00:37:17;102560.44;;;12.45;46.23
11648;BME280;5880;52.342;9.662;2022-11-12T00:39:45;102563.41;;;12.43;46.21
11648;BME280;5880;52.342;9.662;2022-11-12T00:42:10;102565.50;;;12.41;46.20
11648;BME280;5880;52.342;9.662;2022-11-12T00:44:36;102553.41;;;12.36;46.10
11648;BME280;5880;52.342;9.662;2022-11-12T00:47:02;102562.09;;;12.39;46.23
11648;BME280;5880;52.342;9.662;2022-11-12T00:49:28;102558.69;;;12.37;46.02
11648;BME280;5880;52.342;9.662;2022-11-12T00:51:53;102577.69;;;12.39;46.03
11648;BME280;5880;52.342;9.662;2022-11-12T00:54:19;102563.53;;;12.35;46.37
11648;BME280;5880;52.342;9.662;2022-11-12T00:56:46;102573.25;;;12.38;46.18
11648;BME280;5880;52.342;9.662;2022-11-12T00:59:12;102569.19;;;12.34;46.17
11648;BME280;5880;52.342;9.662;2022-11-12T01:01:39;102576.38;;;12.35;45.83
11648;BME280;5880;52.342;9.662;2022-11-12T01:04:05;102580.16;;;12.34;46.30
11648;BME280;5880;52.342;9.662;2022-11-12T01:06:31;102581.41;;;12.31;46.23
11648;BME280;5880;52.342;9.662;2022-11-12T01:08:56;102577.16;;;12.29;45.95
11648;BME280;5880;52.342;9.662;2022-11-12T01:11:28;102582.00;;;12.27;45.97
11648;BME280;5880;52.342;9.662;2022-11-12T01:14:06;102574.34;;;12.22;45.90
11648;BME280;5880;52.342;9.662;2022-11-12T01:16:38;102563.53;;;12.14;46.04
11648;BME280;5880;52.342;9.662;2022-11-12T01:19:07;102569.84;;;12.14;45.88
11648;BME280;5880;52.342;9.662;2022-11-12T01:21:39;102566.69;;;12.11;45.76
11648;BME280;5880;52.342;9.662;2022-11-12T01:24:06;102568.09;;;12.07;45.64
11648;BME280;5880;52.342;9.662;2022-11-12T01:26:31;102560.66;;;12.00;45.70
11648;BME280;5880;52.342;9.662;2022-11-12T01:28:57;102568.44;;;11.97;45.70
11648;BME280;5880;52.342;9.662;2022-11-12T01:31:35;102571.53;;;11.94;45.69
11648;BME280;5880;52.342;9.662;2022-11-12T01:34:08;102570.59;;;11.87;45.46
11648;BME280;5880;52.342;9.662;2022-11-12T01:36:38;102567.56;;;11.81;45.81
11648;BME280;5880;52.342;9.662;2022-11-12T01:39:06;102577.22;;;11.77;45.98
11648;BME280;5880;52.342;9.662;2022-11-12T01:41:36;102574.03;;;11.74;45.80
11648;BME280;5880;52.342;9.662;2022-11-12T01:44:30;102571.69;;;11.71;46.08
11648;BME280;5880;52.342;9.662;2022-11-12T01:47:09;102570.75;;;11.64;46.04
11648;BME280;5880;52.342;9.662;2022-11-12T01:49:57;102579.59;;;11.66;45.71
11648;BME280;5880;52.342;9.662;2022-11-12T01:52:31;102572.63;;;11.63;46.07
11648;BME280;5880;52.342;9.662;2022-11-12T01:55:10;102574.69;;;11.61;46.22
11648;BME280;5880;52.342;9.662;2022-11-12T01:57:48;102571.34;;;11.59;45.99
11648;BME280;5880;52.342;9.662;2022-11-12T02:00:16;102570.47;;;11.58;46.38
11648;BME280;5880;52.342;9.662;2022-11-12T02:02:48;102565.19;;;11.57;46.17
11648;BME280;5880;52.342;9.662;2022-11-12T02:05:17;102567.94;;;11.57;46.40
11648;BME280;5880;52.342;9.662;2022-11-12T02:07:46;102568.97;;;11.56;46.24
11648;BME280;5880;52.342;9.662;2022-11-12T02:10:13;102571.69;;;11.56;46.25
11648;BME280;5880;52.342;9.662;2022-11-12T02:12:40;102569.53;;;11.51;46.26
11648;BME280;5880;52.342;9.662;2022-11-12T02:15:44;102570.19;;;11.53;46.41
11648;BME280;5880;52.342;9.662;2022-11-12T02:18:10;102575.00;;;11.51;46.49
11648;BME280;5880;52.342;9.662;2022-11-12T02:20:37;102578.59;;;11.52;46.54
11648;BME280;5880;52.342;9.662;2022-11-12T02:23:05;102583.88;;;11.53;46.47
11648;BME280;5880;52.342;9.662;2022-11-12T02:25:32;102571.81;;;11.48;46.67
11648;BME280;5880;52.342;9.662;2022-11-12T02:28:04;102575.84;;;11.52;46.68
11648;BME280;5880;52.342;9.662;2022-11-12T02:30:46;102575.66;;;11.53;46.60
11648;BME280;5880;52.342;9.662;2022-11-12T02:33:13;102576.06;;;11.50;46.53
11648;BME280;5880;52.342;9.662;2022-11-12T02:35:39;102574.16;;;11.51;46.59
11648;BME280;5880;52.342;9.662;2022-11-12T02:38:06;102575.22;;;11.50;46.70
11648;BME280;5880;52.342;9.662;2022-11-12T02:40:32;102571.59;;;11.49;46.89
11648;BME280;5880;52.342;9.662;2022-11-12T02:42:58;102576.25;;;11.49;46.81
11648;BME280;5880;52.342;9.662;2022-11-12T02:45:25;102577.09;;;11.49;46.69
11648;BME280;5880;52.342;9.662;2022-11-12T02:47:51;102574.34;;;11.49;46.81
11648;BME280;5880;52.342;9.662;2022-11-12T02:50:18;102576.25;;;11.49;46.70
11648;BME280;5880;52.342;9.662;2022-11-12T02:52:44;102580.88;;;11.48;46.58
11648;BME280;5880;52.342;9.662;2022-11-12T02:55:11;102569.25;;;11.46;46.97
11648;BME280;5880;52.342;9.662;2022-11-12T02:57:38;102571.34;;;11.44;46.71
11648;BME280;5880;52.342;9.662;2022-11-12T03:00:08;102562.75;;;11.47;46.65
11648;BME280;5880;52.342;9.662;2022-11-12T03:02:34;102568.25;;;11.47;46.79
11648;BME280;5880;52.342;9.662;2022-11-12T03:05:09;102566.53;;;11.46;46.79
11648;BME280;5880;52.342;9.662;2022-11-12T03:07:35;102568.41;;;11.46;46.88
11648;BME280;5880;52.342;9.662;2022-11-12T03:10:00;102567.75;;;11.44;46.84
11648;BME280;5880;52.342;9.662;2022-11-12T03:12:26;102568.81;;;11.43;46.60
11648;BME280;5880;52.342;9.662;2022-11-12T03:14:52;102570.50;;;11.44;46.64
11648;BME280;5880;52.342;9.662;2022-11-12T03:17:17;102566.25;;;11.41;46.74
11648;BME280;5880;52.342;9.662;2022-11-12T03:19:43;102561.78;;;11.40;46.89
11648;BME280;5880;52.342;9.662;2022-11-12T03:22:09;102559.28;;;11.38;46.55
11648;BME280;5880;52.342;9.662;2022-11-12T03:24:34;102569.38;;;11.38;46.58
11648;BME280;5880;52.342;9.662;2022-11-12T03:27:00;102562.75;;;11.32;46.49
11648;BME280;5880;52.342;9.662;2022-11-12T03:29:25;102564.47;;;11.33;46.74
11648;BME280;5880;52.342;9.662;2022-11-12T03:31:51;102565.31;;;11.34;46.75
11648;BME280;5880;52.342;9.662;2022-11-12T03:34:17;102566.56;;;11.31;46.90
11648;BME280;5880;52.342;9.662;2022-11-12T03:36:42;102561.81;;;11.25;46.60
11648;BME280;5880;52.342;9.662;2022-11-12T03:39:08;102578.72;;;11.29;46.67
11648;BME280;5880;52.342;9.662;2022-11-12T03:41:34;102578.06;;;11.27;46.75
11648;BME280;5880;52.342;9.662;2022-11-12T03:43:59;102575.34;;;11.27;46.76
11648;BME280;5880;52.342;9.662;2022-11-12T03:46:25;102573.63;;;11.26;47.16
11648;BME280;5880;52.342;9.662;2022-11-12T03:48:51;102568.34;;;11.24;46.98
11648;BME280;5880;52.342;9.662;2022-11-12T03:51:17;102569.38;;;11.23;46.96
11648;BME280;5880;52.342;9.662;2022-11-12T03:53:45;102566.63;;;11.23;47.03
11648;BME280;5880;52.342;9.662;2022-11-12T03:56:11;102570.22;;;11.24;46.95
11648;BME280;5880;52.342;9.662;2022-11-12T03:58:37;102567.47;;;11.24;46.89
11648;BME280;5880;52.342;9.662;2022-11-12T04:01:03;102562.00;;;11.24;47.14
11648;BME280;5880;52.342;9.662;2022-11-12T04:03:28;102565.97;;;11.21;47.19
11648;BME280;5880;52.342;9.662;2022-11-12T04:05:54;102564.28;;;11.20;47.24
11648;BME280;5880;52.342;9.662;2022-11-12T04:08:38;102568.91;;;11.19;47.00
11648;BME280;5880;52.342;9.662;2022-11-12T04:11:16;102568.91;;;11.19;47.18
11648;BME280;5880;52.342;9.662;2022-11-12T04:13:43;102571.84;;;11.18;46.90
11648;BME280;5880;52.342;9.662;2022-11-12T04:16:18;102565.53;;;11.17;47.17
11648;BME280;5880;52.342;9.662;2022-11-12T04:19:05;102558.53;;;11.15;47.18
11648;BME280;5880;52.342;9.662;2022-11-12T04:21:54;102566.25;;;11.11;47.06
11648;BME280;5880;52.342;9.662;2022-11-12T04:27:15;102564.75;;;11.09;46.98
11648;BME280;5880;52.342;9.662;2022-11-12T04:29:42;102565.81;;;11.08;47.05
11648;BME280;5880;52.342;9.662;2022-11-12T04:32:28;102552.31;;;11.06;46.92
11648;BME280;5880;52.342;9.662;2022-11-12T04:34:54;102563.41;;;11.05;47.19
11648;BME280;5880;52.342;9.662;2022-11-12T04:37:22;102557.50;;;11.01;46.91
11648;BME280;5880;52.342;9.662;2022-11-12T04:39:48;102568.06;;;11.04;47.25
11648;BME280;5880;52.342;9.662;2022-11-12T04:42:14;102549.94;;;11.03;47.05
11648;BME280;5880;52.342;9.662;2022-11-12T04:44:58;102559.38;;;11.01;47.07
11648;BME280;5880;52.342;9.662;2022-11-12T04:49:58;102560.22;;;11.01;47.34
11648;BME280;5880;52.342;9.662;2022-11-12T04:52:26;102557.50;;;11.01;47.32
11648;BME280;5880;52.342;9.662;2022-11-12T04:54:52;102553.03;;;11.00;47.24
11648;BME280;5880;52.342;9.662;2022-11-12T04:57:18;102553.03;;;11.00;47.20
11648;BME280;5880;52.342;9.662;2022-11-12T04:59:46;102550.31;;;11.00;47.33
11648;BME280;5880;52.342;9.662;2022-11-12T05:02:12;102554.94;;;10.99;47.25
11648;BME280;5880;52.342;9.662;2022-11-12T05:04:38;102562.31;;;10.99;47.25
11648;BME280;5880;52.342;9.662;2022-11-12T05:07:04;102556.84;;;10.99;47.51
11648;BME280;5880;52.342;9.662;2022-11-12T05:09:30;102562.31;;;10.99;47.50
11648;BME280;5880;52.342;9.662;2022-11-12T05:11:55;102554.28;;;10.97;47.25
11648;BME280;5880;52.342;9.662;2022-11-12T05:14:23;102551.53;;;10.97;47.40
11648;BME280;5880;52.342;9.662;2022-11-12T05:16:49;102543.88;;;10.93;47.28
11648;BME280;5880;52.342;9.662;2022-11-12T05:19:16;102552.59;;;10.96;47.20
11648;BME280;5880;52.342;9.662;2022-11-12T05:21:42;102558.06;;;10.96;47.47
11648;BME280;5880;52.342;9.662;2022-11-12T05:24:27;102556.72;;;10.92;47.18
11648;BME280;5880;52.342;9.662;2022-11-12T05:26:53;102552.00;;;10.86;47.43
11648;BME280;5880;52.342;9.662;2022-11-12T05:29:19;102554.38;;;10.89;47.31
11648;BME280;5880;52.342;9.662;2022-11-12T05:31:44;102554.56;;;10.88;47.28
11648;BME280;5880;52.342;9.662;2022-11-12T05:34:11;102555.59;;;10.87;47.18
11648;BME280;5880;52.342;9.662;2022-11-12T05:36:37;102551.16;;;10.86;47.47
11648;BME280;5880;52.342;9.662;2022-11-12T05:39:03;102560.59;;;10.83;47.24
11648;BME280;5880;52.342;9.662;2022-11-12T05:41:29;102559.56;;;10.84;47.48
11648;BME280;5880;52.342;9.662;2022-11-12T05:43:55;102550.47;;;10.84;47.38
11648;BME280;5880;52.342;9.662;2022-11-12T05:46:21;102551.53;;;10.83;47.46
11648;BME280;5880;52.342;9.662;2022-11-12T05:48:47;102552.59;;;10.82;47.68
11648;BME280;5880;52.342;9.662;2022-11-12T05:51:12;102561.63;;;10.82;47.68
11648;BME280;5880;52.342;9.662;2022-11-12T05:53:40;102558.91;;;10.82;47.50
11648;BME280;5880;52.342;9.662;2022-11-12T05:56:08;102550.88;;;10.81;47.44
11648;BME280;5880;52.342;9.662;2022-11-12T05:58:35;102564.38;;;10.82;47.87
11648;BME280;5880;52.342;9.662;2022-11-12T06:01:01;102556.34;;;10.81;47.54
11648;BME280;5880;52.342;9.662;2022-11-12T06:03:27;102555.50;;;10.80;47.33
11648;BME280;5880;52.342;9.662;2022-11-12T06:05:53;102551.91;;;10.80;47.50
11648;BME280;5880;52.342;9.662;2022-11-12T06:08:19;102544.94;;;10.77;47.61
11648;BME280;5880;52.342;9.662;2022-11-12T06:10:49;102543.03;;;10.77;47.47
11648;BME280;5880;52.342;9.662;2022-11-12T06:13:15;102543.22;;;10.76;47.58
11648;BME280;5880;52.342;9.662;2022-11-12T06:15:41;102535.75;;;10.70;47.67
11648;BME280;5880;52.342;9.662;2022-11-12T06:18:07;102550.75;;;10.74;47.42
11648;BME280;5880;52.342;9.662;2022-11-12T06:20:33;102544.84;;;10.70;47.43
11648;BME280;5880;52.342;9.662;2022-11-12T06:22:58;102545.69;;;10.71;47.41
11648;BME280;5880;52.342;9.662;2022-11-12T06:25:24;102545.84;;;10.69;47.70
11648;BME280;5880;52.342;9.662;2022-11-12T06:27:50;102553.38;;;10.67;47.84
11648;BME280;5880;52.342;9.662;2022-11-12T06:30:17;102556.13;;;10.67;47.57
11648;BME280;5880;52.342;9.662;2022-11-12T06:32:47;102559.41;;;10.63;47.62
11648;BME280;5880;52.342;9.662;2022-11-12T06:35:14;102549.34;;;10.63;47.62
11648;BME280;5880;52.342;9.662;2022-11-12T06:37:40;102558.22;;;10.65;47.51
11648;BME280;5880;52.342;9.662;2022-11-12T06:40:07;102558.41;;;10.64;47.51
11648;BME280;5880;52.342;9.662;2022-11-12T06:42:34;102568.28;;;10.65;47.58
11648;BME280;5880;52.342;9.662;2022-11-12T06:45:00;102577.53;;;10.64;47.54
11648;BME280;5880;52.342;9.662;2022-11-12T06:47:25;102570.34;;;10.63;47.62
11648;BME280;5880;52.342;9.662;2022-11-12T06:49:51;102574.13;;;10.62;47.73
11648;BME280;5880;52.342;9.662;2022-11-12T06:52:17;102578.56;;;10.63;47.94
11648;BME280;5880;52.342;9.662;2022-11-12T06:54:43;102580.44;;;10.62;47.61
11648;BME280;5880;52.342;9.662;2022-11-12T06:57:09;102576.69;;;10.63;47.98
11648;BME280;5880;52.342;9.662;2022-11-12T06:59:35;102556.22;;;10.59;47.88
11648;BME280;5880;52.342;9.662;2022-11-12T07:02:00;102553.66;;;10.57;47.86
11648;BME280;5880;52.342;9.662;2022-11-12T07:04:26;102572.25;;;10.62;47.76
11648;BME280;5880;52.342;9.662;2022-11-12T07:06:52;102580.28;;;10.64;48.08
11648;BME280;5880;52.342;9.662;2022-11-12T07:09:17;102581.97;;;10.65;47.88
11648;BME280;5880;52.342;9.662;2022-11-12T07:11:43;102587.25;;;10.66;48.11
11648;BME280;5880;52.342;9.662;2022-11-12T07:14:09;102585.06;;;10.62;48.47
11648;BME280;5880;52.342;9.662;2022-11-12T07:16:35;102587.44;;;10.65;48.19
11648;BME280;5880;52.342;9.662;2022-11-12T07:19:00;102588.78;;;10.69;48.24
11648;BME280;5880;52.342;9.662;2022-11-12T07:21:26;102594.72;;;10.72;48.42
11648;BME280;5880;52.342;9.662;2022-11-12T07:23:52;102604.63;;;10.73;48.56
11648;BME280;5880;52.342;9.662;2022-11-12T07:26:22;102616.69;;;10.79;48.61
11648;BME280;5880;52.342;9.662;2022-11-12T07:28:51;102613.78;;;10.81;48.48
11648;BME280;5880;52.342;9.662;2022-11-12T07:31:19;102612.56;;;10.83;48.81
11648;BME280;5880;52.342;9.662;2022-11-12T07:33:45;102611.34;;;10.86;49.05
11648;BME280;5880;52.342;9.662;2022-11-12T07:36:19;102603.41;;;10.91;49.05
11648;BME280;5880;52.342;9.662;2022-11-12T07:38:45;102608.53;;;10.94;48.85
11648;BME280;5880;52.342;9.662;2022-11-12T07:41:18;102608.81;;;10.99;49.08
11648;BME280;5880;52.342;9.662;2022-11-12T07:43:46;102600.22;;;11.02;49.13
11648;BME280;5880;52.342;9.662;2022-11-12T07:46:17;102603.06;;;11.09;49.50
11648;BME280;5880;52.342;9.662;2022-11-12T07:48:43;102609.03;;;11.12;49.60
11648;BME280;5880;52.342;9.662;2022-11-12T07:51:26;102604.50;;;11.19;49.45
11648;BME280;5880;52.342;9.662;2022-11-12T07:53:56;102610.25;;;11.25;49.78
11648;BME280;5880;52.342;9.662;2022-11-12T07:56:25;102606.09;;;11.29;49.78
11648;BME280;5880;52.342;9.662;2022-11-12T07:58:51;102611.03;;;11.33;49.81
11648;BME280;5880;52.342;9.662;2022-11-12T08:01:34;102618.47;;;11.39;49.84
11648;BME280;5880;52.342;9.662;2022-11-12T08:04:03;102610.72;;;11.43;49.95
11648;BME280;5880;52.342;9.662;2022-11-12T08:06:30;102612.69;;;11.49;50.15
11648;BME280;5880;52.342;9.662;2022-11-12T08:08:59;102604.78;;;11.54;50.21
11648;BME280;5880;52.342;9.662;2022-11-12T08:11:25;102604.19;;;11.59;50.12
11648;BME280;5880;52.342;9.662;2022-11-12T08:13:51;102605.31;;;11.65;50.29
11648;BME280;5880;52.342;9.662;2022-11-12T08:16:17;102611.72;;;11.72;50.30
11648;BME280;5880;52.342;9.662;2022-11-12T08:18:44;102617.47;;;11.77;50.56
11648;BME280;5880;52.342;9.662;2022-11-12T08:21:14;102617.38;;;11.85;50.54
11648;BME280;5880;52.342;9.662;2022-11-12T08:23:41;102621.91;;;11.93;50.96
11648;BME280;5880;52.342;9.662;2022-11-12T08:26:10;102624.53;;;12.01;51.08
11648;BME280;5880;52.342;9.662;2022-11-12T08:28:36;102623.75;;;12.07;51.03
11648;BME280;5880;52.342;9.662;2022-11-12T08:31:06;102620.91;;;12.15;51.23
11648;BME280;5880;52.342;9.662;2022-11-12T08:33:32;102629.84;;;12.24;51.27
11648;BME280;5880;52.342;9.662;2022-11-12T08:36:06;102627.00;;;12.32;51.42
11648;BME280;5880;52.342;9.662;2022-11-12T08:38:32;102626.84;;;12.40;51.67
11648;BME280;5880;52.342;9.662;2022-11-12T08:41:09;102613.41;;;12.45;51.56
11648;BME280;5880;52.342;9.662;2022-11-12T08:43:35;102618.34;;;12.57;51.64
11648;BME280;5880;52.342;9.662;2022-11-12T08:46:02;102614.25;;;12.67;51.53
11648;BME280;5880;52.342;9.662;2022-11-12T08:48:29;102612.41;;;12.75;51.88
11648;BME280;5880;52.342;9.662;2022-11-12T08:50:56;102605.91;;;12.82;51.93
11648;BME280;5880;52.342;9.662;2022-11-12T08:53:23;102604.53;;;12.93;52.06
11648;BME280;5880;52.342;9.662;2022-11-12T08:55:54;102611.75;;;13.01;52.11
11648;BME280;5880;52.342;9.662;2022-11-12T08:58:20;102601.22;;;13.04;52.11
11648;BME280;5880;52.342;9.662;2022-11-12T09:00:46;102607.66;;;13.18;52.14
11648;BME280;5880;52.342;9.662;2022-11-12T09:03:18;102599.44;;;13.25;52.18
11648;BME280;5880;52.342;9.662;2022-11-12T09:05:45;102610.09;;;13.35;52.10
11648;BME280;5880;52.342;9.662;2022-11-12T09:08:15;102613.50;;;13.43;52.21
11648;BME280;5880;52.342;9.662;2022-11-12T09:10:41;102614.63;;;13.49;52.20
11648;BME280;5880;52.342;9.662;2022-11-12T09:13:07;102599.00;;;13.56;52.34
11648;BME280;5880;52.342;9.662;2022-11-12T09:15:33;102611.31;;;13.67;52.31
11648;BME280;5880;52.342;9.662;2022-11-12T09:18:02;102618.53;;;13.75;52.18
11648;BME280;5880;52.342;9.662;2022-11-12T09:20:29;102624.91;;;13.82;52.38
11648;BME280;5880;52.342;9.662;2022-11-12T09:23:02;102628.31;;;13.90;52.42
11648;BME280;5880;52.342;9.662;2022-11-12T09:25:28;102621.16;;;13.96;52.45
11648;BME280;5880;52.342;9.662;2022-11-12T09:27:54;102610.81;;;13.98;52.42
11648;BME280;5880;52.342;9.662;2022-11-12T09:30:21;102625.63;;;14.10;52.57
11648;BME280;5880;52.342;9.662;2022-11-12T09:32:46;102625.66;;;14.17;52.40
11648;BME280;5880;52.342;9.662;2022-11-12T09:35:12;102625.44;;;14.25;52.57
11648;BME280;5880;52.342;9.662;2022-11-12T09:37:38;102627.19;;;14.33;52.54
11648;BME280;5880;52.342;9.662;2022-11-12T09:40:06;102631.81;;;14.39;52.49
11648;BME280;5880;52.342;9.662;2022-11-12T09:42:35;102634.59;;;14.46;52.39
11648;BME280;5880;52.342;9.662;2022-11-12T09:45:10;102630.78;;;14.53;52.60
11648;BME280;5880;52.342;9.662;2022-11-12T09:47:50;102624.69;;;14.58;52.38
11648;BME280;5880;52.342;9.662;2022-11-12T09:50:25;102617.69;;;14.62;52.57
11648;BME280;5880;52.342;9.662;2022-11-12T09:53:01;102621.31;;;14.69;52.39
11648;BME280;5880;52.342;9.662;2022-11-12T09:55:33;102623.41;;;14.74;52.41
11648;BME280;5880;52.342;9.662;2022-11-12T09:58:01;102621.50;;;14.74;52.44
11648;BME280;5880;52.342;9.662;2022-11-12T10:00:27;102628.94;;;14.81;52.19
11648;BME280;5880;52.342;9.662;2022-11-12T10:03:07;102621.72;;;14.86;52.08
11648;BME280;5880;52.342;9.662;2022-11-12T10:05:58;102609.66;;;14.87;51.94
11648;BME280;5880;52.342;9.662;2022-11-12T10:08:49;102623.00;;;14.90;51.92
11648;BME280;5880;52.342;9.662;2022-11-12T10:20:27;102614.91;;;15.09;52.15
11648;BME280;5880;52.342;9.662;2022-11-12T10:23:14;102619.34;;;15.16;52.00
11648;BME280;5880;52.342;9.662;2022-11-12T10:25:45;102625.06;;;15.22;52.21
11648;BME280;5880;52.342;9.662;2022-11-12T10:28:37;102614.88;;;15.29;52.02
11648;BME280;5880;52.342;9.662;2022-11-12T10:31:17;102616.78;;;15.35;52.35
11648;BME280;5880;52.342;9.662;2022-11-12T10:33:43;102620.78;;;15.39;52.06
11648;BME280;5880;52.342;9.662;2022-11-12T10:36:29;102616.75;;;15.48;52.12
11648;BME280;5880;52.342;9.662;2022-11-12T10:38:56;102608.88;;;15.52;52.11
11648;BME280;5880;52.342;9.662;2022-11-12T10:41:31;102615.84;;;15.61;52.00
11648;BME280;5880;52.342;9.662;2022-11-12T10:44:04;102614.13;;;15.67;52.03
11648;BME280;5880;52.342;9.662;2022-11-12T10:46:34;102613.28;;;15.73;51.77
11648;BME280;5880;52.342;9.662;2022-11-12T10:49:04;102612.63;;;15.77;51.75
11648;BME280;5880;52.342;9.662;2022-11-12T10:51:36;102617.28;;;15.83;51.57
11648;BME280;5880;52.342;9.662;2022-11-12T10:56:53;102610.66;;;15.91;51.57
11648;BME280;5880;52.342;9.662;2022-11-12T10:59:22;102603.41;;;15.97;51.60
11648;BME280;5880;52.342;9.662;2022-11-12T11:01:59;102601.22;;;16.06;51.62
11648;BME280;5880;52.342;9.662;2022-11-12T11:04:35;102588.31;;;16.06;51.46
11648;BME280;5880;52.342;9.662;2022-11-12T11:07:23;102598.59;;;16.17;51.28
11648;BME280;5880;52.342;9.662;2022-11-12T11:09:59;102603.25;;;16.23;51.29
11648;BME280;5880;52.342;9.662;2022-11-12T11:12:29;102601.50;;;16.29;51.20
11648;BME280;5880;52.342;9.662;2022-11-12T11:17:30;102594.88;;;16.37;50.95
11648;BME280;5880;52.342;9.662;2022-11-12T11:19:56;102600.56;;;16.42;50.92
11648;BME280;5880;52.342;9.662;2022-11-12T11:25:26;102594.59;;;16.45;50.44
11648;BME280;5880;52.342;9.662;2022-11-12T11:28:20;102582.50;;;16.46;50.62
11648;BME280;5880;52.342;9.662;2022-11-12T11:31:25;102578.66;;;16.47;50.57
11648;BME280;5880;52.342;9.662;2022-11-12T11:34:18;102569.31;;;16.48;50.73
11648;BME280;5880;52.342;9.662;2022-11-12T11:37:15;102573.78;;;16.49;50.63
11648;BME280;5880;52.342;9.662;2022-11-12T11:43:29;102566.31;;;16.50;50.67
11648;BME280;5880;52.342;9.662;2022-11-12T11:46:27;102565.28;;;16.51;50.74
11648;BME280;5880;52.342;9.662;2022-11-12T11:52:50;102560.13;;;16.54;50.91
11648;BME280;5880;52.342;9.662;2022-11-12T11:55:35;102558.84;;;16.57;50.79
11648;BME280;5880;52.342;9.662;2022-11-12T11:58:22;102560.09;;;16.61;50.92
11648;BME280;5880;52.342;9.662;2022-11-12T12:12:48;102551.69;;;16.74;50.69
11648;BME280;5880;52.342;9.662;2022-11-12T12:15:33;102540.19;;;16.77;50.68
11648;BME280;5880;52.342;9.662;2022-11-12T12:18:17;102537.63;;;16.76;50.57
11648;BME280;5880;52.342;9.662;2022-11-12T12:20:56;102537.81;;;16.81;50.51
11648;BME280;5880;52.342;9.662;2022-11-12T12:26:19;102539.06;;;16.85;50.61
11648;BME280;5880;52.342;9.662;2022-11-12T12:28:59;102532.47;;;16.86;50.51
11648;BME280;5880;52.342;9.662;2022-11-12T12:31:36;102526.09;;;16.85;50.58
11648;BME280;5880;52.342;9.662;2022-11-12T12:34:21;102529.47;;;16.87;50.40
11648;BME280;5880;52.342;9.662;2022-11-12T12:36:54;102529.25;;;16.89;50.47
11648;BME280;5880;52.342;9.662;2022-11-12T12:39:37;102522.88;;;16.88;50.40
11648;BME280;5880;52.342;9.662;2022-11-12T12:42:25;102520.97;;;16.89;50.49
11648;BME280;5880;52.342;9.662;2022-11-12T12:44:58;102523.50;;;16.91;50.44
11648;BME280;5880;52.342;9.662;2022-11-12T12:47:33;102522.44;;;16.92;50.55
11648;BME280;5880;52.342;9.662;2022-11-12T12:50:05;102523.25;;;16.92;50.54
11648;BME280;5880;52.342;9.662;2022-11-12T12:53:04;102524.97;;;16.93;50.50
11648;BME280;5880;52.342;9.662;2022-11-12T12:55:49;102516.69;;;16.93;50.46
11648;BME280;5880;52.342;9.662;2022-11-12T13:00:59;102506.25;;;16.95;50.48
11648;BME280;5880;52.342;9.662;2022-11-12T13:03:53;102506.25;;;16.95;50.33
11648;BME280;5880;52.342;9.662;2022-11-12T13:06:25;102504.53;;;16.94;50.55
11648;BME280;5880;52.342;9.662;2022-11-12T13:35:23;102511.84;;;16.88;50.32
11648;BME280;5880;52.342;9.662;2022-11-12T13:40:38;102500.78;;;16.88;50.17
11648;BME280;5880;52.342;9.662;2022-11-12T13:45:46;102504.00;;;16.85;50.30
11648;BME280;5880;52.342;9.662;2022-11-12T13:48:27;102501.22;;;16.85;50.05
11648;BME280;5880;52.342;9.662;2022-11-12T13:51:00;102503.16;;;16.85;50.24
11648;BME280;5880;52.342;9.662;2022-11-12T13:53:30;102509.50;;;16.85;50.46
11648;BME280;5880;52.342;9.662;2022-11-12T13:55:57;102505.91;;;16.85;50.38
11648;BME280;5880;52.342;9.662;2022-11-12T13:58:35;102500.78;;;16.88;50.19
11648;BME280;5880;52.342;9.662;2022-11-12T14:01:04;102507.63;;;16.86;50.26
11648;BME280;5880;52.342;9.662;2022-11-12T14:06:31;102515.91;;;16.86;50.19
11648;BME280;5880;52.342;9.662;2022-11-12T14:15:22;102509.38;;;16.80;50.26
11648;BME280;5880;52.342;9.662;2022-11-12T14:18:14;102515.97;;;16.79;50.35
11648;BME280;5880;52.342;9.662;2022-11-12T14:20:42;102507.88;;;16.78;50.22
11648;BME280;5880;52.342;9.662;2022-11-12T14:23:20;102511.28;;;16.80;50.27
11648;BME280;5880;52.342;9.662;2022-11-12T14:25:54;102504.09;;;16.79;50.14
11648;BME280;5880;52.342;9.662;2022-11-12T14:28:28;102502.34;;;16.78;50.30
11648;BME280;5880;52.342;9.662;2022-11-12T14:30:56;102498.13;;;16.75;50.47
11648;BME280;5880;52.342;9.662;2022-11-12T14:33:25;102500.06;;;16.75;50.30
11648;BME280;5880;52.342;9.662;2022-11-12T14:35:54;102498.59;;;16.72;50.25
11648;BME280;5880;52.342;9.662;2022-11-12T14:38:30;102497.97;;;16.70;50.25
11648;BME280;5880;52.342;9.662;2022-11-12T14:41:02;102499.28;;;16.67;50.20
11648;BME280;5880;52.342;9.662;2022-11-12T14:43:45;102492.31;;;16.65;50.04
11648;BME280;5880;52.342;9.662;2022-11-12T14:46:24;102507.41;;;16.62;49.99